createdAt,value
2019-05-11T00:03:39.082Z,100798.75
2019-05-11T00:08:44.482Z,100797.67
2019-05-11T00:13:50.012Z,100798.83
2019-05-11T00:18:55.365Z,100795.14
2019-05-11T00:24:00.670Z,100790.34
2019-05-11T00:29:06.479Z,100785.55
2019-05-11T00:34:11.876Z,100786.34
2019-05-11T00:39:17.420Z,100783.83
2019-05-11T00:44:23.478Z,100777.05
2019-05-11T00:49:28.961Z,100773.65
2019-05-11T00:54:34.084Z,100772.11
2019-05-11T00:59:39.735Z,100782.64
2019-05-11T01:04:45.096Z,100774.18
2019-05-11T01:09:50.393Z,100785.44
2019-05-11T01:14:55.691Z,100777.45
2019-05-11T01:20:01.043Z,100792.13
2019-05-11T01:25:07.435Z,100790.36
2019-05-11T01:30:13.638Z,100798.44
2019-05-11T01:35:18.936Z,100792.77
2019-05-11T01:40:24.596Z,100801.84
2019-05-11T01:45:30.263Z,100802.87
2019-05-11T01:50:35.613Z,100804.22
2019-05-11T01:55:40.775Z,100811.69
2019-05-11T02:00:46.433Z,100824.55
2019-05-11T02:05:52.815Z,100820.49
2019-05-11T02:11:14.611Z,100819.63
2019-05-11T02:16:05.795Z,100826.05
2019-05-11T02:21:11.658Z,100829.29
2019-05-11T02:26:18.026Z,100840.67
2019-05-11T02:31:23.509Z,100836.08
2019-05-11T02:36:29.136Z,100843.77
2019-05-11T02:41:37.412Z,100850.28
2019-05-11T02:46:42.834Z,100851.75
2019-05-11T02:51:48.180Z,100866.36
2019-05-11T02:56:53.479Z,100870.81
2019-05-11T03:01:59.128Z,100869.06
2019-05-11T03:07:04.541Z,100867.76
2019-05-11T03:12:09.928Z,100868.20
2019-05-11T03:17:23.534Z,100863.73
2019-05-11T03:22:29.068Z,100875.06
2019-05-11T03:27:34.280Z,100873.17
2019-05-11T03:32:39.572Z,100873.67
2019-05-11T03:37:44.844Z,100887.78
2019-05-11T03:42:50.299Z,100882.34
2019-05-11T03:47:56.073Z,100890.05
2019-05-11T03:53:01.336Z,100881.59
2019-05-11T03:58:06.576Z,100880.81
2019-05-11T04:03:11.922Z,100888.38
2019-05-11T04:08:17.395Z,100885.98
2019-05-11T04:13:22.869Z,100892.38
2019-05-11T04:18:28.482Z,100891.78
2019-05-11T04:23:33.857Z,100905.39
2019-05-11T04:28:39.356Z,100900.44
2019-05-11T04:33:44.886Z,100903.44
2019-05-11T04:38:50.205Z,100908.23
2019-05-11T04:43:55.434Z,100914.84
2019-05-11T04:49:01.121Z,100908.26
2019-05-11T04:54:06.301Z,100908.97
2019-05-11T04:59:11.498Z,100913.02
2019-05-11T05:04:17.038Z,100908.77
2019-05-11T05:09:22.435Z,100905.84
2019-05-11T05:14:28.056Z,100911.09
2019-05-11T05:19:33.417Z,100907.50
2019-05-11T05:24:38.721Z,100907.39
2019-05-11T05:29:44.023Z,100910.01
2019-05-11T05:34:49.128Z,100905.11
2019-05-11T05:39:54.349Z,100909.27
2019-05-11T05:44:59.569Z,100904.76
2019-05-11T05:50:07.061Z,100902.16
2019-05-11T05:55:12.491Z,100905.06
2019-05-11T06:00:17.871Z,100901.03
2019-05-11T06:05:23.014Z,100911.82
2019-05-11T06:10:28.503Z,100911.59
2019-05-11T06:15:33.892Z,100924.02
2019-05-11T06:20:39.033Z,100916.80
2019-05-11T06:25:44.272Z,100934.17
2019-05-11T06:30:49.425Z,100932.36
2019-05-11T06:35:55.056Z,100944.20
2019-05-11T06:41:00.444Z,100937.92
2019-05-11T06:46:05.688Z,100948.89
2019-05-11T06:51:11.512Z,100942.73
2019-05-11T06:56:16.750Z,100946.70
2019-05-11T07:01:22.011Z,100950.45
2019-05-11T07:06:30.509Z,100962.50
2019-05-11T07:11:34.430Z,100959.88
2019-05-11T07:16:39.746Z,100951.59
2019-05-11T07:21:44.942Z,100958.55
2019-05-11T07:26:50.249Z,100962.59
2019-05-11T07:31:57.897Z,100958.97
2019-05-11T07:37:02.655Z,100943.66
2019-05-11T07:42:08.014Z,100966.50
2019-05-11T07:47:13.355Z,100965.43
2019-05-11T07:52:19.050Z,100968.08
2019-05-11T07:57:24.385Z,100962.50
2019-05-11T08:02:32.310Z,100967.43
2019-05-11T08:07:38.036Z,100966.51
2019-05-11T08:12:43.697Z,100962.61
2019-05-11T08:17:49.149Z,100964.27
2019-05-11T08:22:55.858Z,100972.83
2019-05-11T08:28:01.248Z,100978.54
2019-05-11T08:33:09.698Z,100982.15
2019-05-11T08:38:14.932Z,100988.22
2019-05-11T08:43:20.229Z,100988.42
2019-05-11T08:48:25.494Z,100992.14
2019-05-11T08:53:31.027Z,100991.61
2019-05-11T08:58:38.012Z,100989.12
2019-05-11T09:03:43.567Z,100984.63
2019-05-11T09:08:49.437Z,100993.30
2019-05-11T09:13:57.714Z,100986.42
2019-05-11T09:19:02.274Z,100998.55
2019-05-11T09:24:08.839Z,101001.97
2019-05-11T09:29:14.260Z,101008.39
2019-05-11T09:34:19.743Z,101010.73
2019-05-11T09:39:27.898Z,101024.39
2019-05-11T09:44:32.761Z,101029.27
2019-05-11T09:49:46.569Z,101022.34
2019-05-11T09:54:45.441Z,101035.84
2019-05-11T09:59:50.701Z,101038.23
2019-05-11T10:04:57.843Z,101037.33
2019-05-11T10:10:03.936Z,101045.08
2019-05-11T10:15:09.705Z,101041.22
2019-05-11T10:20:14.940Z,101041.95
2019-05-11T10:25:20.583Z,101051.20
2019-05-11T10:30:28.057Z,101063.67
2019-05-11T10:35:33.126Z,101064.09
2019-05-11T10:40:39.226Z,101062.09
2019-05-11T10:45:44.733Z,101062.09
2019-05-11T10:50:50.127Z,101059.94
2019-05-11T10:55:57.986Z,101061.97
2019-05-11T11:01:02.629Z,101061.93
2019-05-11T11:06:08.580Z,101057.77
2019-05-11T11:11:14.978Z,101059.30
2019-05-11T11:16:35.509Z,101061.47
2019-05-11T11:21:27.926Z,101070.31
2019-05-11T11:26:33.457Z,101077.72
2019-05-11T11:31:38.784Z,101082.03
2019-05-11T11:36:44.205Z,101078.25
2019-05-11T11:41:49.674Z,101081.02
2019-05-11T11:46:55.510Z,101065.34
2019-05-11T11:52:01.120Z,101058.81
2019-05-11T11:57:07.702Z,101061.35
2019-05-11T12:02:13.256Z,101058.40
2019-05-11T12:07:18.610Z,101066.25
2019-05-11T12:12:23.981Z,101067.59
2019-05-11T12:17:29.705Z,101068.48
2019-05-11T12:22:34.983Z,101067.16
2019-05-11T12:27:40.280Z,101054.41
2019-05-11T12:32:49.777Z,101064.48
2019-05-11T12:37:54.996Z,101063.44
2019-05-11T12:43:00.280Z,101066.88
2019-05-11T12:48:05.488Z,101074.73
2019-05-11T12:53:10.860Z,101083.77
2019-05-11T12:58:18.171Z,101092.23
2019-05-11T13:03:23.412Z,101097.95
2019-05-11T13:08:28.798Z,101083.41
2019-05-11T13:13:34.115Z,101083.34
2019-05-11T13:18:39.334Z,101088.13
2019-05-11T13:23:44.633Z,101087.20
2019-05-11T13:28:50.035Z,101076.59
2019-05-11T13:33:55.268Z,101080.90
2019-05-11T13:39:00.740Z,101093.12
2019-05-11T13:44:08.019Z,101089.83
2019-05-11T13:49:13.445Z,101091.36
2019-05-11T13:54:18.774Z,101108.81
2019-05-11T13:59:24.494Z,101099.81
2019-05-11T14:04:29.668Z,101105.38
2019-05-11T14:09:35.219Z,101113.84
2019-05-11T14:14:40.320Z,101105.33
2019-05-11T14:19:45.531Z,101115.23
2019-05-11T14:24:50.732Z,101113.02
2019-05-11T14:29:57.900Z,101121.00
2019-05-11T14:35:03.016Z,101127.88
2019-05-11T14:40:09.120Z,101121.63
2019-05-11T14:45:14.480Z,101109.73
2019-05-11T14:50:19.718Z,101124.64
2019-05-11T14:55:24.997Z,101147.70
2019-05-11T15:00:30.570Z,101148.53
2019-05-11T15:05:37.902Z,101153.02
2019-05-11T15:10:43.343Z,101165.92
2019-05-11T15:15:49.002Z,101168.77
2019-05-11T15:20:54.540Z,101174.52
2019-05-11T15:25:59.831Z,101173.91
2019-05-11T15:31:07.879Z,101176.28
2019-05-11T15:36:13.090Z,101177.22
2019-05-11T15:41:21.009Z,101197.55
2019-05-11T15:46:28.232Z,101197.55
2019-05-11T15:51:33.457Z,101200.58
2019-05-11T15:56:38.871Z,101203.77
2019-05-11T16:01:44.527Z,101222.47
2019-05-11T16:06:49.936Z,101227.00
2019-05-11T16:11:55.439Z,101228.50
2019-05-11T16:17:02.094Z,101242.01
2019-05-11T16:22:09.889Z,101256.61
2019-05-11T16:27:14.648Z,101256.61
2019-05-11T16:32:20.425Z,101270.70
2019-05-11T16:37:25.668Z,101268.08
2019-05-11T16:42:32.025Z,101261.47
2019-05-11T16:47:39.109Z,101268.95
2019-05-11T16:52:44.538Z,101273.46
2019-05-11T16:57:49.778Z,101285.55
2019-05-11T17:02:57.523Z,101294.03
2019-05-11T17:08:02.548Z,101300.91
2019-05-11T17:13:08.620Z,101316.02
2019-05-11T17:18:14.087Z,101312.03
2019-05-11T17:23:19.535Z,101327.28
2019-05-11T17:28:24.755Z,101327.78
2019-05-11T17:33:30.817Z,101330.08
2019-05-11T17:38:38.734Z,101346.16
2019-05-11T17:43:43.356Z,101350.48
2019-05-11T17:48:50.288Z,101349.98
2019-05-11T17:53:55.635Z,101346.18
2019-05-11T17:59:00.694Z,101359.72
2019-05-11T18:04:08.064Z,101367.08
2019-05-11T18:09:12.906Z,101373.30
2019-05-11T18:14:17.945Z,101368.59
2019-05-11T18:19:23.298Z,101382.42
2019-05-11T18:24:29.890Z,101398.70
2019-05-11T18:29:35.367Z,101394.81
2019-05-11T18:34:40.707Z,101400.64
2019-05-11T18:39:48.303Z,101404.41
2019-05-11T18:44:53.159Z,101407.63
2019-05-11T18:49:58.856Z,101406.70
2019-05-11T18:55:04.723Z,101412.38
2019-05-11T19:00:10.758Z,101412.07
2019-05-11T19:05:17.969Z,101418.00
2019-05-11T19:10:23.332Z,101422.14
2019-05-11T19:15:28.626Z,101426.22
2019-05-11T19:20:45.452Z,101431.96
2019-05-11T19:25:41.403Z,101434.80
2019-05-11T19:30:48.852Z,101422.85
2019-05-11T19:35:53.832Z,101434.09
2019-05-11T19:40:59.274Z,101446.43
2019-05-11T19:46:04.689Z,101443.94
2019-05-11T19:51:11.987Z,101437.48
2019-05-11T19:56:18.278Z,101450.09
2019-05-11T20:01:23.781Z,101463.11
2019-05-11T20:06:29.125Z,101462.86
2019-05-11T20:11:34.436Z,101480.31
2019-05-11T20:16:39.515Z,101477.45
2019-05-11T20:21:44.775Z,101486.84
2019-05-11T20:26:50.059Z,101477.69
2019-05-11T20:31:57.719Z,101489.29
2019-05-11T20:37:02.589Z,101480.53
2019-05-11T20:42:08.747Z,101482.41
2019-05-11T20:47:14.242Z,101492.69
2019-05-11T20:52:19.483Z,101500.57
2019-05-11T20:57:24.756Z,101514.82
2019-05-11T21:02:30.138Z,101526.72
2019-05-11T21:07:35.608Z,101537.39
2019-05-11T21:12:40.895Z,101537.88
2019-05-11T21:17:48.162Z,101561.94
2019-05-11T21:22:53.290Z,101581.77
2019-05-11T21:27:58.772Z,101572.10
2019-05-11T21:33:04.564Z,101564.63
2019-05-11T21:38:10.107Z,101557.78
2019-05-11T21:43:15.540Z,101557.27
2019-05-11T21:48:20.657Z,101561.74
2019-05-11T21:53:28.643Z,101563.44
2019-05-11T21:58:33.499Z,101576.72
2019-05-11T22:03:38.645Z,101574.71
2019-05-11T22:08:44.003Z,101587.38
2019-05-11T22:13:49.460Z,101584.67
2019-05-11T22:18:55.023Z,101599.54
2019-05-11T22:24:00.992Z,101607.60
2019-05-11T22:29:07.846Z,101617.08
2019-05-11T22:34:13.385Z,101618.27
2019-05-11T22:39:20.895Z,101623.77
2019-05-11T22:44:27.746Z,101634.23
2019-05-11T22:49:32.602Z,101626.23
2019-05-11T22:54:38.412Z,101622.03
2019-05-11T22:59:44.293Z,101625.83
2019-05-11T23:04:49.702Z,101626.23
2019-05-11T23:09:57.656Z,101633.03
2019-05-11T23:15:08.055Z,101621.84
2019-05-11T23:20:14.467Z,101633.02
2019-05-11T23:25:20.143Z,101625.70
2019-05-11T23:30:27.921Z,101637.12
2019-05-11T23:35:33.422Z,101631.98
2019-05-11T23:40:39.091Z,101633.95
2019-05-11T23:45:44.751Z,101641.78
2019-05-11T23:50:50.221Z,101646.13
2019-05-11T23:55:57.917Z,101651.70
